IBS16NR LEMD-LEPA
Flight info
| Callsign | IBS16NR |
|---|---|
| Flight time | N/A |
| Altitude | 30000 |
| Route | NANDO T257 FENXE/N0467F320 T257 LASPO/N0449F260 M871 GODOX |
| Aircraft | A320/M-SDE3FGHIRWY/LB1 |
Departure
| Time | N/A |
|---|---|
| Airport | Adolfo Suárez Madrid–Barajas Airport (LEMD) |
Arrival
| Time | 2026-05-07 22:59 |
|---|---|
| Airport | Palma de Mallorca Airport (LEPA) |
| Time | Latitude | Longitude | Altitude | Speed | Heading |
|---|---|---|---|---|---|
| 2026-05-07 22:50 | 39.49005 | 2.28903 | 4979 ft | 237 kts | 348° |
| 2026-05-07 22:50 | 39.50618 | 2.28887 | 4976 ft | 233 kts | 18° |
| 2026-05-07 22:51 | 39.52017 | 2.29894 | 4972 ft | 231 kts | 46° |
| 2026-05-07 22:51 | 39.52863 | 2.31609 | 4980 ft | 230 kts | 70° |
| 2026-05-07 22:51 | 39.53393 | 2.33573 | 4982 ft | 231 kts | 75° |
| 2026-05-07 22:51 | 39.53484 | 2.35639 | 4784 ft | 230 kts | 102° |
| 2026-05-07 22:52 | 39.52825 | 2.37505 | 4529 ft | 230 kts | 127° |
| 2026-05-07 22:52 | 39.51820 | 2.39110 | 4271 ft | 230 kts | 128° |
| 2026-05-07 22:52 | 39.50805 | 2.40719 | 4018 ft | 229 kts | 128° |
| 2026-05-07 22:52 | 39.49794 | 2.42322 | 3782 ft | 228 kts | 128° |
| 2026-05-07 22:53 | 39.48797 | 2.43901 | 3520 ft | 224 kts | 128° |
| 2026-05-07 22:53 | 39.47820 | 2.45448 | 3270 ft | 220 kts | 128° |
| 2026-05-07 22:53 | 39.46863 | 2.46968 | 3054 ft | 215 kts | 128° |
| 2026-05-07 22:53 | 39.46076 | 2.48539 | 2978 ft | 203 kts | 111° |
| 2026-05-07 22:54 | 39.45750 | 2.50260 | 2990 ft | 195 kts | 93° |
| 2026-05-07 22:54 | 39.45865 | 2.51986 | 2993 ft | 192 kts | 75° |
| 2026-05-07 22:54 | 39.46396 | 2.53568 | 2980 ft | 193 kts | 59° |
| 2026-05-07 22:54 | 39.47104 | 2.55049 | 2838 ft | 193 kts | 60° |
| 2026-05-07 22:55 | 39.47794 | 2.56496 | 2634 ft | 186 kts | 60° |
| 2026-05-07 22:55 | 39.48458 | 2.57890 | 2379 ft | 174 kts | 60° |
| 2026-05-07 22:55 | 39.49073 | 2.59182 | 2152 ft | 163 kts | 59° |
| 2026-05-07 22:55 | 39.49649 | 2.60395 | 1948 ft | 154 kts | 60° |
| 2026-05-07 22:56 | 39.50193 | 2.61540 | 1751 ft | 148 kts | 60° |
| 2026-05-07 22:56 | 39.50726 | 2.62661 | 1555 ft | 145 kts | 60° |
| 2026-05-07 22:56 | 39.51251 | 2.63767 | 1381 ft | 144 kts | 60° |
| 2026-05-07 22:56 | 39.51765 | 2.64850 | 1189 ft | 139 kts | 59° |
| 2026-05-07 22:57 | 39.52271 | 2.65916 | 991 ft | 137 kts | 59° |
| 2026-05-07 22:57 | 39.52762 | 2.66964 | 818 ft | 136 kts | 58° |
| 2026-05-07 22:57 | 39.53261 | 2.68003 | 646 ft | 136 kts | 57° |
| 2026-05-07 22:57 | 39.53762 | 2.69040 | 479 ft | 135 kts | 58° |
| 2026-05-07 22:58 | 39.54248 | 2.70082 | 274 ft | 136 kts | 59° |
| 2026-05-07 22:58 | 39.54738 | 2.71111 | 72 ft | 133 kts | 59° |
| 2026-05-07 22:58 | 39.55180 | 2.72050 | 38 ft | 99 kts | 58° |
| 2026-05-07 22:58 | 39.55449 | 2.72620 | 38 ft | 50 kts | 59° |
| 2026-05-07 22:59 | 39.55590 | 2.72919 | 38 ft | 36 kts | 58° |
| 2026-05-07 22:59 | 39.55698 | 2.73153 | 38 ft | 26 kts | 65° |
| 2026-05-07 22:59 | 39.55719 | 2.73359 | 38 ft | 20 kts | 86° |
| 2026-05-07 22:59 | 39.55716 | 2.73507 | 38 ft | 14 kts | 115° |
| 2026-05-07 23:00 | 39.55634 | 2.73506 | 36 ft | 12 kts | 187° |
| 2026-05-07 23:00 | 39.55558 | 2.73548 | 38 ft | 15 kts | 148° |
| 2026-05-07 23:00 | 39.55447 | 2.73637 | 38 ft | 21 kts | 148° |
| 2026-05-07 23:00 | 39.55316 | 2.73738 | 38 ft | 22 kts | 149° |
| 2026-05-07 23:01 | 39.55202 | 2.73821 | 38 ft | 13 kts | 180° |
| 2026-05-07 23:01 | 39.55172 | 2.73731 | 38 ft | 12 kts | 278° |
| 2026-05-07 23:01 | 39.55154 | 2.73639 | 38 ft | 10 kts | 239° |
| 2026-05-07 23:01 | 39.55113 | 2.73568 | 38 ft | 9 kts | 207° |
| 2026-05-07 23:02 | 39.55067 | 2.73578 | 38 ft | 5 kts | 162° |
| 2026-05-07 23:02 | 39.55065 | 2.73579 | 36 ft | 0 kts | 163° |